Time;durP1;ratioP1;P1;durP2;ratioP2;P2;SDS_P1;SDS_P2;PMS_P1;PMS_P2;Temp;Humidity;BMP_temperature;BMP_pressure;BME280_temperature;BME280_humidity;BME280_pressure;Samples;Min_cycle;Max_cycle;Signal;HPM_P1;HPM_P2
2022/03/12 00:02:04;;;;;;;12.03;8.37;;;;;;;;;;5068552;28;24964;-52
2022/03/12 00:04:30;;;;;;;9.27;7.87;;;;;;;;;;5068403;28;24498;-51
2022/03/12 00:06:55;;;;;;;9.33;8.33;;;;;;;;;;5067025;28;24820;-51
2022/03/12 00:09:21;;;;;;;10.00;7.57;;;;;;;;;;5067765;28;24979;-52
2022/03/12 00:11:50;;;;;;;10.50;8.50;;;;;;;;;;5068351;28;24989;-51
2022/03/12 00:14:17;;;;;;;9.55;8.50;;;;;;;;;;5068110;28;24472;-51
2022/03/12 00:16:43;;;;;;;8.93;7.95;;;;;;;;;;5068503;28;24506;-51
2022/03/12 00:19:09;;;;;;;8.80;7.70;;;;;;;;;;5065670;28;24466;-52
2022/03/12 00:21:35;;;;;;;11.10;7.80;;;;;;;;;;5067759;28;24514;-52
2022/03/12 00:24:01;;;;;;;12.30;8.40;;;;;;;;;;5066542;28;24980;-52
2022/03/12 00:26:29;;;;;;;10.07;8.02;;;;;;;;;;5068116;28;24387;-52
2022/03/12 00:28:54;;;;;;;9.30;7.90;;;;;;;;;;5063456;28;25042;-51
2022/03/12 00:31:20;;;;;;;8.77;7.63;;;;;;;;;;5067926;28;24418;-51
2022/03/12 00:33:45;;;;;;;9.83;7.87;;;;;;;;;;5055638;28;25028;-51
2022/03/12 00:36:11;;;;;;;9.82;8.00;;;;;;;;;;5067394;28;24472;-52
2022/03/12 00:38:37;;;;;;;8.95;8.05;;;;;;;;;;5067773;28;24957;-51
2022/03/12 00:41:04;;;;;;;8.50;7.30;;;;;;;;;;5065751;28;24445;-51
2022/03/12 00:43:29;;;;;;;9.10;7.67;;;;;;;;;;5067850;28;24457;-51
2022/03/12 00:45:54;;;;;;;8.23;7.35;;;;;;;;;;5066285;28;24550;-51
2022/03/12 00:48:19;;;;;;;9.02;7.95;;;;;;;;;;5068127;28;24409;-51
2022/03/12 00:50:44;;;;;;;8.98;8.05;;;;;;;;;;5066172;28;24415;-52
2022/03/12 00:53:09;;;;;;;9.20;7.83;;;;;;;;;;5066471;28;24590;-51
2022/03/12 00:55:35;;;;;;;8.98;8.07;;;;;;;;;;5066185;28;24407;-51
2022/03/12 00:58:00;;;;;;;9.55;7.70;;;;;;;;;;5066817;28;24872;-51
2022/03/12 01:00:26;;;;;;;8.57;7.77;;;;;;;;;;5065505;28;24429;-52
2022/03/12 01:02:51;;;;;;;10.20;8.10;;;;;;;;;;5066393;28;24758;-51
2022/03/12 01:05:18;;;;;;;10.52;8.05;;;;;;;;;;5067600;28;24411;-51
2022/03/12 01:07:43;;;;;;;9.10;8.20;;;;;;;;;;5066881;28;24966;-52
2022/03/12 01:10:09;;;;;;;8.80;7.50;;;;;;;;;;5061112;28;24451;-51
2022/03/12 01:12:34;;;;;;;9.17;7.40;;;;;;;;;;5064992;28;24407;-51
2022/03/12 01:15:00;;;;;;;8.18;7.38;;;;;;;;;;5065875;28;24419;-51
2022/03/12 01:17:25;;;;;;;10.43;7.85;;;;;;;;;;5066771;28;24768;-51
2022/03/12 01:19:50;;;;;;;8.98;7.68;;;;;;;;;;5065122;28;24426;-51
2022/03/12 01:22:20;;;;;;;7.73;6.93;;;;;;;;;;5067426;28;24419;-56
2022/03/12 01:24:45;;;;;;;8.77;7.45;;;;;;;;;;5064182;28;24429;-52
2022/03/12 01:27:10;;;;;;;8.20;7.30;;;;;;;;;;5066568;28;24403;-51
2022/03/12 01:29:35;;;;;;;7.30;6.40;;;;;;;;;;5065440;28;24455;-51
2022/03/12 01:32:00;;;;;;;7.50;6.70;;;;;;;;;;5066723;28;24410;-51
2022/03/12 01:34:26;;;;;;;8.23;7.38;;;;;;;;;;5059188;28;24503;-51
2022/03/12 01:36:51;;;;;;;7.37;6.67;;;;;;;;;;5055815;28;24889;-51
2022/03/12 01:39:16;;;;;;;8.30;7.50;;;;;;;;;;5064691;28;24447;-51
2022/03/12 01:41:42;;;;;;;8.30;7.13;;;;;;;;;;5066479;28;24848;-52
2022/03/12 01:44:08;;;;;;;8.35;6.63;;;;;;;;;;5065925;28;24453;-51
2022/03/12 01:46:34;;;;;;;7.25;6.47;;;;;;;;;;5066224;28;25028;-51
2022/03/12 01:49:02;;;;;;;7.13;6.43;;;;;;;;;;5066969;28;25004;-52
2022/03/12 01:51:27;;;;;;;7.38;6.13;;;;;;;;;;5066603;28;24494;-52
2022/03/12 01:53:53;;;;;;;7.13;6.43;;;;;;;;;;5067231;28;25011;-52
2022/03/12 01:56:19;;;;;;;7.22;6.05;;;;;;;;;;5066016;28;24399;-51
2022/03/12 01:58:45;;;;;;;7.65;5.95;;;;;;;;;;5066590;28;24458;-50
2022/03/12 02:01:11;;;;;;;7.27;6.20;;;;;;;;;;5066153;28;24462;-50
2022/03/12 02:03:36;;;;;;;6.70;6.00;;;;;;;;;;5066958;28;24960;-50
2022/03/12 02:06:01;;;;;;;6.40;5.80;;;;;;;;;;5066174;28;24456;-50
2022/03/12 02:08:27;;;;;;;7.23;5.70;;;;;;;;;;5066609;28;24412;-50
2022/03/12 02:10:59;;;;;;;7.55;5.95;;;;;;;;;;5065898;28;24492;-50
2022/03/12 02:13:25;;;;;;;6.70;6.00;;;;;;;;;;5056218;28;24503;-50
2022/03/12 02:16:03;;;;;;;7.00;6.30;;;;;;;;;;5066916;28;24453;-50
2022/03/12 02:18:28;;;;;;;7.75;5.95;;;;;;;;;;5066436;28;24425;-50
2022/03/12 02:20:53;;;;;;;5.70;5.20;;;;;;;;;;5067915;28;24439;-49
2022/03/12 02:23:18;;;;;;;6.90;6.20;;;;;;;;;;5070470;28;24415;-50
2022/03/12 02:25:44;;;;;;;7.50;5.65;;;;;;;;;;5070834;28;24399;-50
2022/03/12 02:28:19;;;;;;;6.65;5.22;;;;;;;;;;5069039;28;24407;-50
2022/03/12 02:30:51;;;;;;;6.50;5.40;;;;;;;;;;5070381;28;24407;-50
2022/03/12 02:33:20;;;;;;;6.30;5.20;;;;;;;;;;5070365;28;24967;-51
2022/03/12 02:35:47;;;;;;;7.35;6.10;;;;;;;;;;5070383;28;24410;-51
2022/03/12 02:38:12;;;;;;;6.20;5.35;;;;;;;;;;5069797;28;24960;-51
2022/03/12 02:40:41;;;;;;;6.50;5.45;;;;;;;;;;5070442;28;24430;-50
2022/03/12 02:43:13;;;;;;;6.20;5.60;;;;;;;;;;5068628;28;24437;-51
2022/03/12 02:45:39;;;;;;;6.55;5.85;;;;;;;;;;5070353;28;24769;-50
2022/03/12 02:48:06;;;;;;;6.22;5.63;;;;;;;;;;5069610;28;24406;-50
2022/03/12 02:50:32;;;;;;;7.38;5.90;;;;;;;;;;5069919;28;24471;-50
2022/03/12 02:52:57;;;;;;;6.00;5.40;;;;;;;;;;5070020;28;24464;-50
2022/03/12 02:55:23;;;;;;;6.50;5.60;;;;;;;;;;5070123;28;24414;-50
2022/03/12 02:57:49;;;;;;;5.93;5.32;;;;;;;;;;5069280;28;24745;-51
2022/03/12 03:00:16;;;;;;;6.05;5.30;;;;;;;;;;5069124;28;24963;-51
2022/03/12 03:02:41;;;;;;;5.72;5.15;;;;;;;;;;5068809;28;25304;-51
2022/03/12 03:05:31;;;;;;;6.80;5.53;;;;;;;;;;5069623;28;24449;-51
2022/03/12 03:07:57;;;;;;;5.80;5.20;;;;;;;;;;5068491;28;24859;-51
2022/03/12 03:10:34;;;;;;;6.47;5.00;;;;;;;;;;5069688;28;24509;-51
2022/03/12 03:13:17;;;;;;;5.53;5.03;;;;;;;;;;5069386;28;24407;-51
2022/03/12 03:15:47;;;;;;;5.85;5.00;;;;;;;;;;5069274;28;24466;-50
2022/03/12 03:18:13;;;;;;;5.95;5.35;;;;;;;;;;5065606;28;24415;-50
2022/03/12 03:20:38;;;;;;;5.70;5.00;;;;;;;;;;5069864;28;24480;-50
2022/03/12 03:23:05;;;;;;;5.90;5.30;;;;;;;;;;5069225;28;24444;-51
2022/03/12 03:25:31;;;;;;;6.93;5.23;;;;;;;;;;5069518;28;24555;-50
2022/03/12 03:27:56;;;;;;;5.75;5.05;;;;;;;;;;5068599;28;24506;-54
2022/03/12 03:30:21;;;;;;;6.10;5.50;;;;;;;;;;5068408;28;24521;-51
2022/03/12 03:32:46;;;;;;;5.97;5.00;;;;;;;;;;5067803;28;24766;-50
2022/03/12 03:35:11;;;;;;;6.55;5.30;;;;;;;;;;5069560;28;24452;-51
2022/03/12 03:37:36;;;;;;;5.60;5.10;;;;;;;;;;5068882;28;24422;-51
2022/03/12 03:40:02;;;;;;;4.78;4.38;;;;;;;;;;5067526;28;24785;-51
2022/03/12 03:42:27;;;;;;;5.20;4.70;;;;;;;;;;5068666;28;24588;-51
2022/03/12 03:44:57;;;;;;;6.03;5.03;;;;;;;;;;5068774;28;24500;-50
2022/03/12 03:47:22;;;;;;;6.35;4.80;;;;;;;;;;5054248;28;24417;-51
2022/03/12 03:49:47;;;;;;;5.28;4.70;;;;;;;;;;5060347;28;24428;-51
2022/03/12 03:52:13;;;;;;;4.90;4.40;;;;;;;;;;5067805;28;25103;-51
2022/03/12 03:54:38;;;;;;;5.70;4.70;;;;;;;;;;5051629;28;24514;-51
2022/03/12 03:57:03;;;;;;;5.67;4.80;;;;;;;;;;5066046;28;24446;-51
2022/03/12 03:59:29;;;;;;;5.50;4.90;;;;;;;;;;5067530;28;25114;-51
2022/03/12 04:01:54;;;;;;;5.20;4.70;;;;;;;;;;5068299;28;24418;-51
2022/03/12 04:04:20;;;;;;;6.65;5.18;;;;;;;;;;5066607;28;24430;-52
2022/03/12 04:06:46;;;;;;;7.25;4.60;;;;;;;;;;5068289;28;24538;-51
2022/03/12 04:09:11;;;;;;;5.50;4.53;;;;;;;;;;5050958;28;24518;-51
2022/03/12 04:11:38;;;;;;;5.63;5.13;;;;;;;;;;5061163;28;24464;-51
2022/03/12 04:14:05;;;;;;;5.90;4.50;;;;;;;;;;5066207;28;24423;-51
2022/03/12 04:16:31;;;;;;;5.30;4.50;;;;;;;;;;5067608;28;24492;-51
2022/03/12 04:18:56;;;;;;;5.45;4.95;;;;;;;;;;5057863;28;24426;-51
2022/03/12 04:21:21;;;;;;;6.37;4.80;;;;;;;;;;5068386;28;24411;-51
2022/03/12 04:23:49;;;;;;;5.13;4.60;;;;;;;;;;5068178;28;24414;-51
2022/03/12 04:26:14;;;;;;;5.68;4.60;;;;;;;;;;5067267;28;24406;-51
2022/03/12 04:28:39;;;;;;;5.73;4.50;;;;;;;;;;5058205;28;24793;-51
2022/03/12 04:31:05;;;;;;;5.60;4.70;;;;;;;;;;5068407;28;24403;-51
2022/03/12 04:33:32;;;;;;;5.18;4.68;;;;;;;;;;5066484;28;24952;-51
2022/03/12 04:35:57;;;;;;;5.05;4.55;;;;;;;;;;5067434;28;24487;-50
2022/03/12 04:38:23;;;;;;;4.30;3.90;;;;;;;;;;5065036;28;24924;-50
2022/03/12 04:40:48;;;;;;;5.45;4.60;;;;;;;;;;5067323;28;24383;-50
2022/03/12 04:43:14;;;;;;;5.10;4.60;;;;;;;;;;5066987;28;24411;-51
2022/03/12 04:45:42;;;;;;;5.23;4.73;;;;;;;;;;5066836;28;24484;-50
2022/03/12 04:48:10;;;;;;;5.47;4.97;;;;;;;;;;5067172;28;24493;-51
2022/03/12 04:50:35;;;;;;;6.32;5.40;;;;;;;;;;5065687;28;24419;-50
2022/03/12 04:53:01;;;;;;;5.53;5.00;;;;;;;;;;5063010;28;24442;-51
2022/03/12 04:55:27;;;;;;;5.70;5.20;;;;;;;;;;5063607;28;24501;-51
2022/03/12 04:57:53;;;;;;;6.70;4.75;;;;;;;;;;5061728;28;24972;-51
2022/03/12 05:00:18;;;;;;;5.60;5.10;;;;;;;;;;5065196;28;24576;-50
2022/03/12 05:02:45;;;;;;;5.53;5.03;;;;;;;;;;5061385;28;24423;-50
2022/03/12 05:05:11;;;;;;;5.93;4.90;;;;;;;;;;5055514;28;24431;-51
2022/03/12 05:07:37;;;;;;;5.22;4.72;;;;;;;;;;5066084;28;24835;-50
2022/03/12 05:10:04;;;;;;;6.03;4.25;;;;;;;;;;5065754;28;24449;-50
2022/03/12 05:12:29;;;;;;;4.60;4.20;;;;;;;;;;5067134;28;24920;-54
2022/03/12 05:14:54;;;;;;;5.77;4.20;;;;;;;;;;5062867;28;24416;-50
2022/03/12 05:17:23;;;;;;;5.70;4.83;;;;;;;;;;5065753;28;24477;-50
2022/03/12 05:19:48;;;;;;;5.05;4.47;;;;;;;;;;5066026;28;24430;-49
2022/03/12 05:22:13;;;;;;;6.65;4.38;;;;;;;;;;5066699;28;24410;-51
2022/03/12 05:24:39;;;;;;;5.22;4.30;;;;;;;;;;5065241;28;24484;-50
2022/03/12 05:27:06;;;;;;;4.80;4.40;;;;;;;;;;5065845;28;24558;-51
2022/03/12 05:29:31;;;;;;;4.18;3.78;;;;;;;;;;5061037;28;25340;-50
2022/03/12 05:31:56;;;;;;;5.88;4.68;;;;;;;;;;5063042;28;24442;-50
2022/03/12 05:34:23;;;;;;;6.60;4.68;;;;;;;;;;5063223;28;24960;-50
2022/03/12 05:36:48;;;;;;;5.80;4.88;;;;;;;;;;5064763;28;24421;-50
2022/03/12 05:39:15;;;;;;;6.27;4.77;;;;;;;;;;5063656;28;24440;-51
2022/03/12 05:41:41;;;;;;;6.07;4.80;;;;;;;;;;5065455;28;24842;-50
2022/03/12 05:44:06;;;;;;;6.57;4.40;;;;;;;;;;5066711;28;24990;-51
2022/03/12 05:46:31;;;;;;;6.00;5.00;;;;;;;;;;5066247;28;24487;-50
2022/03/12 05:48:57;;;;;;;6.70;4.90;;;;;;;;;;5064508;28;24430;-50
2022/03/12 05:51:22;;;;;;;5.75;4.55;;;;;;;;;;5065698;28;24510;-50
2022/03/12 05:53:48;;;;;;;4.57;4.17;;;;;;;;;;5061114;28;24488;-50
2022/03/12 05:56:13;;;;;;;5.50;4.60;;;;;;;;;;5065614;28;24415;-51
2022/03/12 05:58:39;;;;;;;5.00;4.50;;;;;;;;;;5057427;28;24998;-50
2022/03/12 06:01:05;;;;;;;5.85;5.20;;;;;;;;;;5065015;28;24407;-51
2022/03/12 06:03:30;;;;;;;5.30;4.80;;;;;;;;;;5063681;28;24496;-51
2022/03/12 06:05:59;;;;;;;5.00;4.50;;;;;;;;;;5066807;28;24490;-51
2022/03/12 06:08:24;;;;;;;6.50;4.88;;;;;;;;;;5060574;28;24427;-51
2022/03/12 06:10:52;;;;;;;5.30;4.80;;;;;;;;;;5065502;28;24530;-50
2022/03/12 06:13:18;;;;;;;6.35;5.15;;;;;;;;;;5063977;28;24403;-52
2022/03/12 06:15:48;;;;;;;5.37;4.87;;;;;;;;;;5064242;28;24494;-52
2022/03/12 06:18:13;;;;;;;7.13;4.83;;;;;;;;;;5063644;28;24433;-51
2022/03/12 06:20:39;;;;;;;5.00;4.50;;;;;;;;;;5066445;28;24761;-50
2022/03/12 06:23:04;;;;;;;6.40;5.10;;;;;;;;;;5062473;28;24503;-50
2022/03/12 06:25:29;;;;;;;5.50;4.53;;;;;;;;;;5066657;28;24430;-51
2022/03/12 06:27:54;;;;;;;5.80;5.05;;;;;;;;;;5062678;28;24421;-51
2022/03/12 06:30:26;;;;;;;6.60;4.78;;;;;;;;;;5065481;28;24427;-51
2022/03/12 06:32:52;;;;;;;5.47;4.95;;;;;;;;;;5065139;28;24422;-51
2022/03/12 06:35:18;;;;;;;6.00;4.80;;;;;;;;;;5066388;28;24410;-51
2022/03/12 06:37:43;;;;;;;7.17;6.00;;;;;;;;;;5058250;28;24426;-51
2022/03/12 06:40:11;;;;;;;5.73;5.23;;;;;;;;;;5066737;28;24415;-51
2022/03/12 06:42:37;;;;;;;6.00;4.97;;;;;;;;;;5064754;28;24442;-50
2022/03/12 06:45:02;;;;;;;5.93;5.35;;;;;;;;;;5065907;28;24429;-51
2022/03/12 06:47:32;;;;;;;7.03;5.80;;;;;;;;;;5062850;28;24423;-51
2022/03/12 06:49:58;;;;;;;6.20;5.60;;;;;;;;;;5065523;28;24536;-51
2022/03/12 06:52:24;;;;;;;6.05;5.32;;;;;;;;;;5063769;28;24423;-51
2022/03/12 06:54:49;;;;;;;6.57;5.33;;;;;;;;;;5064570;28;24414;-51
2022/03/12 06:57:14;;;;;;;7.60;5.10;;;;;;;;;;5063040;28;24423;-51
2022/03/12 06:59:39;;;;;;;6.40;5.70;;;;;;;;;;5065802;28;24953;-51
2022/03/12 07:02:05;;;;;;;7.72;5.70;;;;;;;;;;5064348;28;24825;-51
2022/03/12 07:04:30;;;;;;;6.27;5.20;;;;;;;;;;5065984;28;24411;-50
2022/03/12 07:06:55;;;;;;;8.55;5.43;;;;;;;;;;5066392;28;24468;-51
2022/03/12 07:09:20;;;;;;;5.97;5.47;;;;;;;;;;5066562;28;24425;-51
2022/03/12 07:11:45;;;;;;;7.43;5.77;;;;;;;;;;5068010;28;24411;-50
2022/03/12 07:14:10;;;;;;;7.40;5.13;;;;;;;;;;5066982;28;24505;-51
2022/03/12 07:16:36;;;;;;;6.80;5.50;;;;;;;;;;5064109;28;24429;-51
2022/03/12 07:19:01;;;;;;;7.50;6.20;;;;;;;;;;5066761;28;24519;-52
2022/03/12 07:21:27;;;;;;;8.40;6.13;;;;;;;;;;5068698;28;24427;-51
2022/03/12 07:23:52;;;;;;;6.20;5.60;;;;;;;;;;5067796;28;24940;-51
2022/03/12 07:26:17;;;;;;;6.57;5.43;;;;;;;;;;5069645;28;24417;-51
2022/03/12 07:28:42;;;;;;;7.80;5.93;;;;;;;;;;5063584;28;24418;-51
2022/03/12 07:31:07;;;;;;;7.03;5.73;;;;;;;;;;5067756;28;24411;-51
2022/03/12 07:33:33;;;;;;;6.20;5.60;;;;;;;;;;5064971;28;24418;-51
2022/03/12 07:35:58;;;;;;;8.30;6.20;;;;;;;;;;5069259;28;24752;-51
2022/03/12 07:38:23;;;;;;;7.05;6.00;;;;;;;;;;5066140;28;25157;-52
2022/03/12 07:40:48;;;;;;;6.30;5.70;;;;;;;;;;5065189;28;24410;-51
2022/03/12 07:43:14;;;;;;;7.45;6.13;;;;;;;;;;5069103;28;24415;-51
2022/03/12 07:45:39;;;;;;;7.57;6.40;;;;;;;;;;5068525;28;24442;-51
2022/03/12 07:48:05;;;;;;;6.82;6.00;;;;;;;;;;5067016;28;24421;-52
2022/03/12 07:50:30;;;;;;;6.60;5.90;;;;;;;;;;5063960;28;24522;-52
2022/03/12 07:52:57;;;;;;;8.30;5.97;;;;;;;;;;5069157;28;24519;-52
2022/03/12 07:55:23;;;;;;;7.65;6.15;;;;;;;;;;5068940;28;24391;-51
2022/03/12 07:57:48;;;;;;;7.20;6.20;;;;;;;;;;5068532;28;24567;-51
2022/03/12 08:00:14;;;;;;;7.30;6.07;;;;;;;;;;5068017;28;24418;-51
2022/03/12 08:02:41;;;;;;;10.25;6.35;;;;;;;;;;5068010;28;25166;-51
2022/03/12 08:05:06;;;;;;;8.85;6.93;;;;;;;;;;5066693;28;24449;-51
2022/03/12 08:07:32;;;;;;;8.13;6.50;;;;;;;;;;5065317;28;24439;-51
2022/03/12 08:09:59;;;;;;;9.45;6.55;;;;;;;;;;5068152;28;25233;-52
2022/03/12 08:12:25;;;;;;;8.02;6.53;;;;;;;;;;5066773;28;24956;-51
2022/03/12 08:14:50;;;;;;;8.32;6.47;;;;;;;;;;5062815;28;24406;-51
2022/03/12 08:17:16;;;;;;;8.83;6.40;;;;;;;;;;5067227;28;24407;-50
2022/03/12 08:19:41;;;;;;;8.00;6.28;;;;;;;;;;5063857;28;24883;-51
2022/03/12 08:22:06;;;;;;;7.13;6.20;;;;;;;;;;5068601;28;24431;-52
2022/03/12 08:24:31;;;;;;;7.07;5.90;;;;;;;;;;5067592;28;24419;-52
2022/03/12 08:26:59;;;;;;;9.13;6.90;;;;;;;;;;5068961;28;24407;-51
2022/03/12 08:29:24;;;;;;;8.95;6.53;;;;;;;;;;5068186;28;24979;-51
2022/03/12 08:31:49;;;;;;;6.80;6.10;;;;;;;;;;5068557;28;24407;-51
2022/03/12 08:34:15;;;;;;;6.77;5.73;;;;;;;;;;5068512;28;24395;-52
2022/03/12 08:36:41;;;;;;;6.70;6.00;;;;;;;;;;5067600;28;24957;-51
2022/03/12 08:39:06;;;;;;;8.20;6.53;;;;;;;;;;5067437;28;24952;-51
2022/03/12 08:41:34;;;;;;;8.77;5.82;;;;;;;;;;5053997;28;24469;-52
2022/03/12 08:43:59;;;;;;;7.43;6.63;;;;;;;;;;5049005;28;24394;-51
2022/03/12 08:46:24;;;;;;;7.50;6.20;;;;;;;;;;5066892;28;24410;-51
2022/03/12 08:48:49;;;;;;;10.37;5.90;;;;;;;;;;5066593;28;24450;-52
2022/03/12 08:51:15;;;;;;;8.37;6.50;;;;;;;;;;5067491;28;24406;-51
2022/03/12 08:53:40;;;;;;;6.75;6.05;;;;;;;;;;5066721;28;24491;-51
2022/03/12 08:56:06;;;;;;;9.00;6.20;;;;;;;;;;5065654;28;24603;-50
2022/03/12 08:58:31;;;;;;;8.20;6.13;;;;;;;;;;5067751;28;24384;-51
2022/03/12 09:00:57;;;;;;;8.68;6.30;;;;;;;;;;5066103;28;24427;-51
2022/03/12 09:03:22;;;;;;;7.80;6.00;;;;;;;;;;5067063;28;24395;-51
2022/03/12 09:05:48;;;;;;;7.70;6.20;;;;;;;;;;5065706;28;24423;-51
2022/03/12 09:08:15;;;;;;;6.80;6.00;;;;;;;;;;5066108;28;24497;-51
2022/03/12 09:10:40;;;;;;;9.00;6.20;;;;;;;;;;5065847;28;24434;-52
2022/03/12 09:13:06;;;;;;;7.90;5.82;;;;;;;;;;5065523;28;24761;-51
2022/03/12 09:15:32;;;;;;;8.10;6.60;;;;;;;;;;5050566;28;25033;-51
2022/03/12 09:17:57;;;;;;;8.10;6.00;;;;;;;;;;5062754;28;24581;-52
2022/03/12 09:20:23;;;;;;;9.50;5.95;;;;;;;;;;5064529;28;24422;-51
2022/03/12 09:22:48;;;;;;;6.90;6.20;;;;;;;;;;5066709;28;24421;-52
2022/03/12 09:25:14;;;;;;;6.47;5.87;;;;;;;;;;5065390;28;24418;-52
2022/03/12 09:27:39;;;;;;;7.20;6.30;;;;;;;;;;5067213;28;24407;-55
2022/03/12 09:30:05;;;;;;;7.70;5.90;;;;;;;;;;5066107;28;24520;-51
2022/03/12 09:32:30;;;;;;;8.73;6.47;;;;;;;;;;5066127;28;24478;-51
2022/03/12 09:34:55;;;;;;;7.78;6.25;;;;;;;;;;5064585;28;24422;-52
2022/03/12 09:37:21;;;;;;;9.68;5.80;;;;;;;;;;5064517;28;24458;-51
2022/03/12 09:39:46;;;;;;;7.50;5.70;;;;;;;;;;5065020;28;24422;-52
2022/03/12 09:42:11;;;;;;;6.87;6.13;;;;;;;;;;5063090;28;24435;-51
2022/03/12 09:44:36;;;;;;;7.35;6.03;;;;;;;;;;5065879;28;24406;-52
2022/03/12 09:47:02;;;;;;;6.27;5.67;;;;;;;;;;5066314;28;24793;-52
2022/03/12 09:49:27;;;;;;;8.52;6.28;;;;;;;;;;5064803;28;24453;-52
2022/03/12 09:51:52;;;;;;;9.00;6.17;;;;;;;;;;5065363;28;24514;-52
2022/03/12 09:54:18;;;;;;;7.47;6.38;;;;;;;;;;5065701;28;24574;-51
2022/03/12 09:56:43;;;;;;;7.30;5.53;;;;;;;;;;5065749;28;24407;-52
2022/03/12 09:59:08;;;;;;;6.40;5.80;;;;;;;;;;5066757;28;24422;-52
2022/03/12 10:01:33;;;;;;;6.27;5.67;;;;;;;;;;5066769;28;24409;-51
2022/03/12 10:03:59;;;;;;;7.50;5.70;;;;;;;;;;5066651;28;24394;-52
2022/03/12 10:06:24;;;;;;;7.30;5.77;;;;;;;;;;5066501;28;24427;-53
2022/03/12 10:08:49;;;;;;;8.60;5.90;;;;;;;;;;5066513;28;24761;-51
2022/03/12 10:11:14;;;;;;;7.03;6.13;;;;;;;;;;5066737;28;24436;-51
2022/03/12 10:13:40;;;;;;;6.70;5.80;;;;;;;;;;5066123;28;24502;-52
2022/03/12 10:16:09;;;;;;;7.03;5.70;;;;;;;;;;5066871;28;24928;-51
2022/03/12 10:18:35;;;;;;;6.93;5.70;;;;;;;;;;5066599;28;24414;-51
2022/03/12 10:21:01;;;;;;;7.35;6.10;;;;;;;;;;5066637;28;24387;-51
2022/03/12 10:23:26;;;;;;;6.57;5.97;;;;;;;;;;5066414;28;24771;-51
2022/03/12 10:25:51;;;;;;;6.30;5.70;;;;;;;;;;5066162;28;24815;-51
2022/03/12 10:28:18;;;;;;;7.10;6.10;;;;;;;;;;5066597;28;24555;-51
2022/03/12 10:30:43;;;;;;;6.82;6.13;;;;;;;;;;5066001;28;24996;-51
2022/03/12 10:33:08;;;;;;;6.80;5.88;;;;;;;;;;5066387;28;24959;-51
2022/03/12 10:35:35;;;;;;;7.97;6.38;;;;;;;;;;5065208;28;24426;-51
2022/03/12 10:38:00;;;;;;;8.50;5.90;;;;;;;;;;5066385;28;24415;-51
2022/03/12 10:40:25;;;;;;;7.10;6.25;;;;;;;;;;5063958;28;25210;-51
2022/03/12 10:42:56;;;;;;;6.60;5.90;;;;;;;;;;5068612;28;24480;-52
2022/03/12 10:45:22;;;;;;;6.10;5.50;;;;;;;;;;5069578;28;25005;-52
2022/03/12 10:47:48;;;;;;;9.35;6.50;;;;;;;;;;5069974;28;24410;-52
2022/03/12 10:50:18;;;;;;;6.90;5.93;;;;;;;;;;5069978;28;24761;-50
2022/03/12 10:52:49;;;;;;;7.80;5.87;;;;;;;;;;5070354;28;24753;-51
2022/03/12 10:55:23;;;;;;;8.02;7.00;;;;;;;;;;5070057;28;24421;-51
2022/03/12 10:57:58;;;;;;;6.53;5.82;;;;;;;;;;5068917;28;24418;-52
2022/03/12 11:00:24;;;;;;;7.60;6.30;;;;;;;;;;5067664;28;24457;-51
2022/03/12 11:02:54;;;;;;;7.00;6.30;;;;;;;;;;5069613;28;24395;-51
2022/03/12 11:05:25;;;;;;;7.20;6.50;;;;;;;;;;5069644;28;24895;-51
2022/03/12 11:07:51;;;;;;;7.00;6.15;;;;;;;;;;5068717;28;24434;-52
2022/03/12 11:10:22;;;;;;;7.13;5.90;;;;;;;;;;5069854;28;24422;-52
2022/03/12 11:12:51;;;;;;;8.10;6.40;;;;;;;;;;5069489;28;24383;-51
2022/03/12 11:15:16;;;;;;;8.43;6.40;;;;;;;;;;5069881;28;24753;-51
2022/03/12 11:17:44;;;;;;;7.13;6.43;;;;;;;;;;5069353;28;24940;-52
2022/03/12 11:20:16;;;;;;;7.07;6.38;;;;;;;;;;5069045;28;24456;-51
2022/03/12 11:22:41;;;;;;;7.87;6.20;;;;;;;;;;5069417;28;24477;-51
2022/03/12 11:25:10;;;;;;;6.95;6.15;;;;;;;;;;5069587;28;24406;-51
2022/03/12 11:27:35;;;;;;;7.18;6.40;;;;;;;;;;5069343;28;24460;-51
2022/03/12 11:30:08;;;;;;;10.45;6.55;;;;;;;;;;5068871;28;24953;-55
2022/03/12 11:32:35;;;;;;;7.43;6.63;;;;;;;;;;5069102;28;25012;-51
2022/03/12 11:35:06;;;;;;;7.40;6.70;;;;;;;;;;5066396;28;24468;-51
2022/03/12 11:37:36;;;;;;;7.05;6.35;;;;;;;;;;5063930;28;24411;-51
2022/03/12 11:40:03;;;;;;;7.03;6.32;;;;;;;;;;5067884;28;24414;-51
2022/03/12 11:42:32;;;;;;;8.70;6.77;;;;;;;;;;5068318;28;24538;-51
2022/03/12 11:44:58;;;;;;;7.80;6.80;;;;;;;;;;5068175;28;24410;-51
2022/03/12 11:47:25;;;;;;;8.80;6.65;;;;;;;;;;5067826;28;24417;-51
2022/03/12 11:49:50;;;;;;;7.80;6.78;;;;;;;;;;5067479;28;24518;-52
2022/03/12 11:52:16;;;;;;;7.20;6.50;;;;;;;;;;5069265;28;24498;-51
2022/03/12 11:54:43;;;;;;;9.50;5.90;;;;;;;;;;5067809;28;24418;-51
2022/03/12 11:57:09;;;;;;;7.07;6.38;;;;;;;;;;5069418;28;24809;-51
2022/03/12 11:59:35;;;;;;;8.40;6.78;;;;;;;;;;5068524;28;24431;-51
2022/03/12 12:02:01;;;;;;;7.87;7.07;;;;;;;;;;5050699;28;24772;-51
2022/03/12 12:04:29;;;;;;;8.07;6.68;;;;;;;;;;5068050;28;24472;-51
2022/03/12 12:06:54;;;;;;;8.80;7.10;;;;;;;;;;5068092;28;24836;-50
2022/03/12 12:09:19;;;;;;;7.37;6.50;;;;;;;;;;5068580;28;25121;-50
2022/03/12 12:11:45;;;;;;;8.60;7.22;;;;;;;;;;5068264;28;24418;-50
2022/03/12 12:14:10;;;;;;;8.60;7.00;;;;;;;;;;5068302;28;24429;-51
2022/03/12 12:16:35;;;;;;;7.80;7.00;;;;;;;;;;5068140;28;24449;-51
2022/03/12 12:19:01;;;;;;;7.20;6.50;;;;;;;;;;5067640;28;24774;-51
2022/03/12 12:21:26;;;;;;;7.95;7.05;;;;;;;;;;5066779;28;24949;-51
2022/03/12 12:23:51;;;;;;;7.93;6.70;;;;;;;;;;5066689;28;24453;-50
2022/03/12 12:26:16;;;;;;;8.50;7.60;;;;;;;;;;5067087;28;24936;-51
2022/03/12 12:28:59;;;;;;;8.40;6.80;;;;;;;;;;5067586;28;24411;-51
2022/03/12 12:31:25;;;;;;;8.10;7.20;;;;;;;;;;5065272;28;24537;-51
2022/03/12 12:33:50;;;;;;;7.50;6.70;;;;;;;;;;5065552;28;24485;-51
2022/03/12 12:36:20;;;;;;;7.80;7.10;;;;;;;;;;5066964;28;24410;-51
2022/03/12 12:39:05;;;;;;;8.38;7.10;;;;;;;;;;5064512;28;24421;-51
2022/03/12 12:41:49;;;;;;;7.40;6.70;;;;;;;;;;5064866;28;24535;-51
2022/03/12 12:44:14;;;;;;;6.85;6.05;;;;;;;;;;5071173;28;24506;-51
2022/03/12 12:46:39;;;;;;;9.50;6.90;;;;;;;;;;5068501;28;24815;-52
2022/03/12 12:49:05;;;;;;;8.50;6.70;;;;;;;;;;5068769;28;25282;-52
2022/03/12 12:51:30;;;;;;;8.32;6.45;;;;;;;;;;5067690;28;25039;-51
2022/03/12 12:53:57;;;;;;;8.37;6.50;;;;;;;;;;5072611;28;24429;-52
2022/03/12 12:56:29;;;;;;;7.25;6.30;;;;;;;;;;5069187;28;24514;-51
2022/03/12 12:58:58;;;;;;;7.88;6.90;;;;;;;;;;5067818;28;24422;-51
2022/03/12 13:01:24;;;;;;;8.38;6.55;;;;;;;;;;5060515;28;24410;-50
2022/03/12 13:03:52;;;;;;;7.00;6.30;;;;;;;;;;5065292;28;24408;-50
2022/03/12 13:06:35;;;;;;;7.57;6.78;;;;;;;;;;5063386;28;24988;-51
2022/03/12 13:09:04;;;;;;;7.10;6.40;;;;;;;;;;5060697;28;24423;-52
2022/03/12 13:11:30;;;;;;;7.50;6.80;;;;;;;;;;5063780;28;24407;-51
2022/03/12 13:13:58;;;;;;;9.27;7.30;;;;;;;;;;5063661;28;24415;-51
2022/03/12 13:16:24;;;;;;;7.95;7.10;;;;;;;;;;5064307;28;25257;-51
2022/03/12 13:18:49;;;;;;;7.10;6.40;;;;;;;;;;5064372;28;24430;-50
2022/03/12 13:21:24;;;;;;;8.30;7.50;;;;;;;;;;5059965;28;24880;-51
2022/03/12 13:23:49;;;;;;;8.00;7.20;;;;;;;;;;5061786;28;24464;-51
2022/03/12 13:26:17;;;;;;;7.47;6.37;;;;;;;;;;5063286;28;24863;-51
2022/03/12 13:28:44;;;;;;;8.18;7.05;;;;;;;;;;5063751;28;24975;-51
2022/03/12 13:31:16;;;;;;;7.80;7.00;;;;;;;;;;5085319;28;24393;-51
2022/03/12 13:33:42;;;;;;;6.93;6.20;;;;;;;;;;5063940;28;24407;-51
2022/03/12 13:36:18;;;;;;;8.18;6.97;;;;;;;;;;5061342;28;24418;-50
2022/03/12 13:38:44;;;;;;;8.75;7.85;;;;;;;;;;5061908;28;24843;-52
2022/03/12 13:41:12;;;;;;;8.82;6.90;;;;;;;;;;5056902;28;24415;-51
2022/03/12 13:43:37;;;;;;;7.07;6.38;;;;;;;;;;5068564;28;24990;-51
2022/03/12 13:46:05;;;;;;;8.15;6.35;;;;;;;;;;5059731;28;24419;-52
2022/03/12 13:48:30;;;;;;;7.93;6.60;;;;;;;;;;5062025;28;25082;-52
2022/03/12 13:50:56;;;;;;;7.47;6.40;;;;;;;;;;5066108;28;24448;-51
2022/03/12 13:53:26;;;;;;;9.38;6.60;;;;;;;;;;5066575;28;24472;-51
2022/03/12 13:55:51;;;;;;;10.10;7.32;;;;;;;;;;5066999;28;24391;-51
2022/03/12 13:58:19;;;;;;;6.88;6.18;;;;;;;;;;5067038;28;24485;-53
2022/03/12 14:00:47;;;;;;;8.30;6.40;;;;;;;;;;5066817;28;24426;-52
2022/03/12 14:03:12;;;;;;;8.67;6.80;;;;;;;;;;5066857;28;24469;-52
2022/03/12 14:05:39;;;;;;;6.57;5.80;;;;;;;;;;5067137;28;24983;-53
2022/03/12 14:08:15;;;;;;;7.32;6.40;;;;;;;;;;5067049;28;24435;-51
2022/03/12 14:10:44;;;;;;;7.10;6.40;;;;;;;;;;5066908;28;24501;-50
2022/03/12 14:13:10;;;;;;;7.00;6.30;;;;;;;;;;5066775;28;24510;-51
2022/03/12 14:15:35;;;;;;;7.20;6.10;;;;;;;;;;5066761;28;24498;-51
2022/03/12 14:18:03;;;;;;;6.80;6.10;;;;;;;;;;5072666;28;24391;-50
2022/03/12 14:20:34;;;;;;;7.50;6.15;;;;;;;;;;5073780;28;24753;-52
2022/03/12 14:23:00;;;;;;;6.60;6.00;;;;;;;;;;5073297;28;24410;-50
2022/03/12 14:25:26;;;;;;;6.60;5.90;;;;;;;;;;5073521;28;24915;-51
2022/03/12 14:27:51;;;;;;;7.85;6.43;;;;;;;;;;5073565;28;25236;-51
2022/03/12 14:30:17;;;;;;;6.70;6.00;;;;;;;;;;5073584;28;24469;-52
2022/03/12 14:32:42;;;;;;;7.20;6.50;;;;;;;;;;5060718;28;24410;-51
2022/03/12 14:35:10;;;;;;;7.73;5.70;;;;;;;;;;5070422;28;24530;-51
2022/03/12 14:37:36;;;;;;;8.57;6.53;;;;;;;;;;5073435;28;24967;-51
2022/03/12 14:40:03;;;;;;;6.70;6.10;;;;;;;;;;5070292;28;24466;-51